Time;durP1;ratioP1;P1;durP2;ratioP2;P2;SDS_P1;SDS_P2;PMS_P1;PMS_P2;Temp;Humidity;BMP_temperature;BMP_pressure;BME280_temperature;BME280_humidity;BME280_pressure;Samples;Min_cycle;Max_cycle;Signal;HPM_P1;HPM_P2
2022/03/01 00:00:07;;;;;;;15.35;7.97;;;;;;;;;;5009958;28;20117;-46
2022/03/01 00:02:33;;;;;;;19.17;9.25;;;;;;;;;;5008946;28;20125;-47
2022/03/01 00:04:59;;;;;;;16.35;8.70;;;;;;;;;;5008998;28;20088;-43
2022/03/01 00:07:25;;;;;;;16.98;8.23;;;;;;;;;;5008776;28;20615;-44
2022/03/01 00:09:52;;;;;;;16.70;9.05;;;;;;;;;;5009344;28;20149;-45
2022/03/01 00:12:18;;;;;;;16.30;9.35;;;;;;;;;;5010302;28;20522;-49
2022/03/01 00:14:45;;;;;;;15.63;9.18;;;;;;;;;;4991390;28;20431;-48
2022/03/01 00:17:11;;;;;;;16.85;8.80;;;;;;;;;;5005142;28;20030;-47
2022/03/01 00:19:37;;;;;;;16.23;8.80;;;;;;;;;;5010780;28;20068;-46
2022/03/01 00:22:03;;;;;;;15.60;8.32;;;;;;;;;;5010934;28;20029;-42
2022/03/01 00:24:29;;;;;;;16.52;8.75;;;;;;;;;;5009190;28;20037;-48
2022/03/01 00:26:55;;;;;;;18.10;8.70;;;;;;;;;;5011012;28;20030;-43
2022/03/01 00:29:21;;;;;;;14.43;8.38;;;;;;;;;;5010462;28;20037;-46
2022/03/01 00:31:48;;;;;;;13.98;8.32;;;;;;;;;;5010492;28;20026;-47
2022/03/01 00:34:14;;;;;;;15.93;8.40;;;;;;;;;;5010768;28;20033;-43
2022/03/01 00:36:40;;;;;;;15.88;8.07;;;;;;;;;;5010783;28;20033;-44
2022/03/01 00:39:06;;;;;;;17.75;9.10;;;;;;;;;;5010000;28;20030;-43
2022/03/01 00:41:32;;;;;;;17.10;8.50;;;;;;;;;;5010193;28;20113;-43
2022/03/01 00:43:58;;;;;;;16.67;7.50;;;;;;;;;;5010287;28;20556;-44
2022/03/01 00:46:26;;;;;;;12.82;7.82;;;;;;;;;;5010040;28;20030;-42
2022/03/01 00:48:53;;;;;;;13.60;7.90;;;;;;;;;;5009264;28;20117;-42
2022/03/01 00:51:19;;;;;;;16.73;9.15;;;;;;;;;;5009764;28;20109;-42
2022/03/01 00:53:45;;;;;;;14.55;7.93;;;;;;;;;;5009901;28;20191;-41
2022/03/01 00:56:11;;;;;;;15.10;7.95;;;;;;;;;;5009817;28;20095;-43
2022/03/01 00:58:38;;;;;;;16.90;7.28;;;;;;;;;;5009540;28;20033;-43
2022/03/01 01:01:04;;;;;;;14.20;8.18;;;;;;;;;;5010020;28;20080;-44
2022/03/01 01:03:30;;;;;;;13.13;7.72;;;;;;;;;;5009545;28;20828;-45
2022/03/01 01:05:56;;;;;;;14.48;7.38;;;;;;;;;;5010118;28;20184;-44
2022/03/01 01:08:22;;;;;;;13.90;7.07;;;;;;;;;;5009266;28;20025;-50
2022/03/01 01:10:49;;;;;;;12.50;7.15;;;;;;;;;;5009819;28;20026;-47
2022/03/01 01:13:16;;;;;;;15.68;7.30;;;;;;;;;;5009253;28;20062;-44
2022/03/01 01:15:42;;;;;;;13.18;7.45;;;;;;;;;;5009521;28;20077;-45
2022/03/01 01:18:08;;;;;;;13.85;7.57;;;;;;;;;;5009457;28;20109;-47
2022/03/01 01:20:34;;;;;;;13.93;7.80;;;;;;;;;;5009673;28;20041;-47
2022/03/01 01:23:00;;;;;;;12.20;7.05;;;;;;;;;;5009229;28;20113;-42
2022/03/01 01:25:26;;;;;;;13.50;8.02;;;;;;;;;;5009446;28;20571;-48
2022/03/01 01:27:54;;;;;;;12.82;7.65;;;;;;;;;;5009993;28;20033;-47
2022/03/01 01:30:21;;;;;;;13.88;7.80;;;;;;;;;;5009336;28;20021;-45
2022/03/01 01:32:48;;;;;;;13.60;7.15;;;;;;;;;;5009324;28;20061;-45
2022/03/01 01:35:14;;;;;;;13.52;6.68;;;;;;;;;;5008677;28;20095;-43
2022/03/01 01:37:41;;;;;;;12.35;7.05;;;;;;;;;;5009481;28;20029;-48
2022/03/01 01:40:09;;;;;;;10.95;6.70;;;;;;;;;;5009546;28;20084;-43
2022/03/01 01:42:36;;;;;;;13.07;7.18;;;;;;;;;;5009125;28;21079;-42
2022/03/01 01:45:02;;;;;;;16.23;7.97;;;;;;;;;;5008660;28;20176;-42
2022/03/01 01:47:28;;;;;;;10.93;6.35;;;;;;;;;;5009115;28;20128;-45
2022/03/01 01:49:54;;;;;;;13.30;7.55;;;;;;;;;;5008825;28;20026;-43
2022/03/01 01:52:20;;;;;;;11.75;6.63;;;;;;;;;;5008514;28;20077;-43
2022/03/01 01:54:48;;;;;;;14.60;6.93;;;;;;;;;;5008804;28;20112;-44
2022/03/01 01:57:15;;;;;;;13.98;7.80;;;;;;;;;;5008991;28;20050;-41
2022/03/01 01:59:41;;;;;;;12.82;7.03;;;;;;;;;;5008920;28;20029;-44
2022/03/01 02:02:09;;;;;;;12.25;7.10;;;;;;;;;;5009248;28;20026;-43
2022/03/01 02:04:35;;;;;;;11.50;6.97;;;;;;;;;;5008034;28;20045;-45
2022/03/01 02:07:01;;;;;;;11.38;6.38;;;;;;;;;;5008919;28;20045;-42
2022/03/01 02:09:27;;;;;;;13.30;7.25;;;;;;;;;;5008264;28;20041;-42
2022/03/01 02:11:53;;;;;;;11.00;6.72;;;;;;;;;;5008236;28;20488;-45
2022/03/01 02:14:19;;;;;;;13.32;6.82;;;;;;;;;;5008246;28;20022;-43
2022/03/01 02:16:46;;;;;;;11.27;6.72;;;;;;;;;;5007781;28;20153;-42
2022/03/01 02:19:13;;;;;;;13.20;6.47;;;;;;;;;;5009175;28;20172;-43
2022/03/01 02:21:46;;;;;;;11.63;6.80;;;;;;;;;;5009100;28;20025;-44
2022/03/01 02:24:12;;;;;;;11.30;6.80;;;;;;;;;;5008197;28;20113;-43
2022/03/01 02:26:39;;;;;;;10.48;6.47;;;;;;;;;;5008561;28;20037;-44
2022/03/01 02:29:05;;;;;;;11.30;6.70;;;;;;;;;;5008101;28;20034;-43
2022/03/01 02:31:31;;;;;;;10.82;6.50;;;;;;;;;;5008150;28;20257;-46
2022/03/01 02:33:57;;;;;;;11.45;6.45;;;;;;;;;;5008390;28;20895;-47
2022/03/01 02:36:23;;;;;;;10.80;6.75;;;;;;;;;;5007987;28;20038;-46
2022/03/01 02:38:49;;;;;;;9.68;5.60;;;;;;;;;;5008505;28;20113;-43
2022/03/01 02:41:17;;;;;;;12.15;6.60;;;;;;;;;;5008021;28;20527;-43
2022/03/01 02:43:43;;;;;;;10.65;7.15;;;;;;;;;;5008626;28;20620;-42
2022/03/01 02:46:09;;;;;;;12.30;6.82;;;;;;;;;;5007795;28;20061;-48
2022/03/01 02:48:35;;;;;;;11.25;6.53;;;;;;;;;;5007506;28;20863;-45
2022/03/01 02:51:01;;;;;;;12.20;6.88;;;;;;;;;;5008285;28;20112;-48
2022/03/01 02:53:27;;;;;;;11.13;6.47;;;;;;;;;;5007581;28;20101;-45
2022/03/01 02:55:53;;;;;;;11.35;6.85;;;;;;;;;;5007932;28;20029;-44
2022/03/01 02:58:19;;;;;;;10.18;6.25;;;;;;;;;;5006805;28;20449;-44
2022/03/01 03:00:45;;;;;;;11.95;6.13;;;;;;;;;;5008200;28;20461;-42
2022/03/01 03:03:12;;;;;;;10.60;6.45;;;;;;;;;;5006115;28;20053;-46
2022/03/01 03:05:39;;;;;;;10.55;6.65;;;;;;;;;;5007740;28;20088;-43
2022/03/01 03:08:05;;;;;;;13.43;7.13;;;;;;;;;;5008242;28;20381;-44
2022/03/01 03:10:33;;;;;;;12.00;6.95;;;;;;;;;;5008357;28;20131;-43
2022/03/01 03:12:59;;;;;;;8.57;5.65;;;;;;;;;;5007554;28;20022;-43
2022/03/01 03:15:27;;;;;;;9.93;6.30;;;;;;;;;;5007215;28;20092;-43
2022/03/01 03:17:53;;;;;;;10.13;6.35;;;;;;;;;;5008011;28;20026;-44
2022/03/01 03:20:19;;;;;;;9.75;5.70;;;;;;;;;;5007747;28;20568;-46
2022/03/01 03:22:45;;;;;;;12.30;6.50;;;;;;;;;;5007982;28;20405;-46
2022/03/01 03:25:11;;;;;;;8.50;5.43;;;;;;;;;;5007435;28;20551;-42
2022/03/01 03:27:37;;;;;;;10.35;5.72;;;;;;;;;;5007048;28;20116;-41
2022/03/01 03:30:04;;;;;;;9.35;5.85;;;;;;;;;;5007899;28;20029;-42
2022/03/01 03:32:30;;;;;;;10.50;6.18;;;;;;;;;;5007655;28;20029;-44
2022/03/01 03:34:56;;;;;;;10.05;6.15;;;;;;;;;;5007594;28;20480;-42
2022/03/01 03:37:22;;;;;;;10.85;6.75;;;;;;;;;;5007608;28;20022;-44
2022/03/01 03:39:48;;;;;;;10.40;6.43;;;;;;;;;;5007982;28;20026;-44
2022/03/01 03:42:14;;;;;;;11.07;5.95;;;;;;;;;;5007870;28;20484;-47
2022/03/01 03:44:40;;;;;;;10.35;6.03;;;;;;;;;;5007845;28;20041;-44
2022/03/01 03:47:07;;;;;;;10.43;6.25;;;;;;;;;;5007541;28;20034;-42
2022/03/01 03:49:33;;;;;;;10.15;5.68;;;;;;;;;;5007568;28;20484;-46
2022/03/01 03:51:59;;;;;;;10.10;6.28;;;;;;;;;;5007959;28;20108;-42
2022/03/01 03:54:26;;;;;;;9.20;5.32;;;;;;;;;;5007127;28;20030;-43
2022/03/01 03:56:52;;;;;;;9.15;6.13;;;;;;;;;;5007242;28;20073;-46
2022/03/01 03:59:18;;;;;;;11.57;6.10;;;;;;;;;;5008387;28;20117;-42
2022/03/01 04:01:45;;;;;;;9.15;5.25;;;;;;;;;;5011516;28;20022;-42
2022/03/01 04:04:11;;;;;;;10.32;5.72;;;;;;;;;;5010853;28;20133;-47
2022/03/01 04:06:37;;;;;;;9.63;5.57;;;;;;;;;;5011055;28;20500;-43
2022/03/01 04:09:04;;;;;;;10.80;6.45;;;;;;;;;;5010721;28;20108;-46
2022/03/01 04:11:30;;;;;;;9.20;5.35;;;;;;;;;;5010810;28;20100;-44
2022/03/01 04:13:57;;;;;;;10.05;5.28;;;;;;;;;;5010655;28;20026;-44
2022/03/01 04:16:23;;;;;;;8.90;5.50;;;;;;;;;;5011270;28;20105;-41
2022/03/01 04:18:49;;;;;;;12.48;6.95;;;;;;;;;;5011185;28;20116;-42
2022/03/01 04:21:16;;;;;;;10.57;5.88;;;;;;;;;;5010972;28;20097;-42
2022/03/01 04:23:42;;;;;;;11.25;6.45;;;;;;;;;;5010300;28;20531;-43
2022/03/01 04:26:08;;;;;;;8.32;5.10;;;;;;;;;;5010271;28;20560;-42
2022/03/01 04:28:34;;;;;;;9.57;5.82;;;;;;;;;;5010282;28;20504;-42
2022/03/01 04:31:01;;;;;;;9.50;5.90;;;;;;;;;;5010631;28;20061;-49
2022/03/01 04:33:27;;;;;;;8.60;5.55;;;;;;;;;;5010629;28;20030;-49
2022/03/01 04:35:54;;;;;;;9.15;5.40;;;;;;;;;;5010098;28;20052;-42
2022/03/01 04:38:20;;;;;;;9.65;5.85;;;;;;;;;;5010352;28;20045;-42
2022/03/01 04:40:47;;;;;;;12.40;5.40;;;;;;;;;;5010213;28;20097;-46
2022/03/01 04:43:23;;;;;;;10.52;6.07;;;;;;;;;;5010489;28;20030;-44
2022/03/01 04:45:49;;;;;;;8.48;5.25;;;;;;;;;;5010363;28;20045;-50
2022/03/01 04:48:15;;;;;;;8.15;5.15;;;;;;;;;;5010263;28;20149;-49
2022/03/01 04:50:42;;;;;;;10.00;5.38;;;;;;;;;;5010449;28;20523;-47
2022/03/01 04:53:08;;;;;;;8.95;5.20;;;;;;;;;;5010471;28;20026;-48
2022/03/01 04:55:34;;;;;;;8.90;4.95;;;;;;;;;;5010371;28;20030;-50
2022/03/01 04:58:00;;;;;;;10.50;5.63;;;;;;;;;;5009778;28;20018;-47
2022/03/01 05:00:27;;;;;;;9.98;5.80;;;;;;;;;;5009731;28;20060;-43
2022/03/01 05:02:53;;;;;;;9.57;5.25;;;;;;;;;;5010368;28;20025;-44
2022/03/01 05:05:19;;;;;;;10.93;5.55;;;;;;;;;;5010197;28;20073;-44
2022/03/01 05:07:46;;;;;;;9.88;5.53;;;;;;;;;;5010658;28;20100;-42
2022/03/01 05:10:14;;;;;;;12.95;6.20;;;;;;;;;;5008810;28;20036;-46
2022/03/01 05:12:53;;;;;;;9.85;5.90;;;;;;;;;;5009829;28;20699;-43
2022/03/01 05:15:20;;;;;;;12.33;6.37;;;;;;;;;;5010125;28;20108;-43
2022/03/01 05:17:47;;;;;;;8.85;5.63;;;;;;;;;;5009958;28;20277;-44
2022/03/01 05:20:14;;;;;;;11.40;6.75;;;;;;;;;;5010238;28;20022;-42
2022/03/01 05:22:40;;;;;;;10.57;6.22;;;;;;;;;;5009589;28;20022;-43
2022/03/01 05:25:09;;;;;;;10.23;6.00;;;;;;;;;;5009617;28;20042;-45
2022/03/01 05:27:35;;;;;;;11.40;6.68;;;;;;;;;;5009196;28;20376;-45
2022/03/01 05:30:01;;;;;;;9.73;6.13;;;;;;;;;;5009694;28;20348;-46
2022/03/01 05:32:27;;;;;;;12.63;7.18;;;;;;;;;;5009470;28;20073;-44
2022/03/01 05:34:53;;;;;;;10.13;6.18;;;;;;;;;;5009387;28;20057;-45
2022/03/01 05:37:19;;;;;;;10.68;7.00;;;;;;;;;;5009046;28;20010;-42
2022/03/01 05:39:46;;;;;;;10.70;6.00;;;;;;;;;;5010192;28;20879;-45
2022/03/01 05:42:12;;;;;;;12.00;6.95;;;;;;;;;;5009107;28;20037;-42
2022/03/01 05:44:38;;;;;;;11.38;6.95;;;;;;;;;;5008690;28;20045;-45
2022/03/01 05:47:04;;;;;;;11.15;6.38;;;;;;;;;;5009273;28;20108;-48
2022/03/01 05:49:30;;;;;;;10.27;6.25;;;;;;;;;;5008686;28;20034;-42
2022/03/01 05:51:56;;;;;;;11.00;6.22;;;;;;;;;;5009388;28;20611;-44
2022/03/01 05:54:22;;;;;;;11.15;7.05;;;;;;;;;;5008957;28;20543;-46
2022/03/01 05:56:48;;;;;;;10.73;6.30;;;;;;;;;;5009002;28;20061;-45
2022/03/01 05:59:14;;;;;;;11.27;6.82;;;;;;;;;;5008289;28;20495;-44
2022/03/01 06:01:40;;;;;;;12.73;6.85;;;;;;;;;;5009153;28;20026;-44
2022/03/01 06:04:06;;;;;;;12.32;6.68;;;;;;;;;;5008315;28;20412;-44
2022/03/01 06:06:33;;;;;;;13.75;6.43;;;;;;;;;;5009021;28;20586;-44
2022/03/01 06:08:59;;;;;;;11.02;6.55;;;;;;;;;;5008673;28;20037;-44
2022/03/01 06:11:25;;;;;;;12.43;6.25;;;;;;;;;;5008731;28;20034;-41
2022/03/01 06:13:50;;;;;;;11.38;6.57;;;;;;;;;;5008424;28;20851;-49
2022/03/01 06:16:17;;;;;;;11.05;6.70;;;;;;;;;;5008393;28;20030;-43
2022/03/01 06:18:44;;;;;;;14.27;5.65;;;;;;;;;;5009121;28;20029;-43
2022/03/01 06:21:10;;;;;;;12.93;5.57;;;;;;;;;;5009321;28;20030;-49
2022/03/01 06:23:36;;;;;;;15.77;5.85;;;;;;;;;;5008522;28;20109;-44
2022/03/01 06:26:02;;;;;;;14.75;6.57;;;;;;;;;;5008697;28;20563;-43
2022/03/01 06:28:28;;;;;;;14.07;5.40;;;;;;;;;;5007865;28;20025;-44
2022/03/01 06:30:54;;;;;;;11.35;5.22;;;;;;;;;;5008291;28;20434;-44
2022/03/01 06:33:20;;;;;;;13.85;5.88;;;;;;;;;;5008428;28;20034;-45
2022/03/01 06:35:47;;;;;;;17.35;6.25;;;;;;;;;;5009098;28;20072;-46
2022/03/01 06:38:14;;;;;;;15.50;5.22;;;;;;;;;;5008892;28;20113;-51
2022/03/01 06:40:40;;;;;;;13.93;5.15;;;;;;;;;;5008378;28;20083;-46
2022/03/01 06:43:06;;;;;;;12.05;5.25;;;;;;;;;;5008337;28;20034;-44
2022/03/01 06:45:32;;;;;;;23.23;5.50;;;;;;;;;;5008239;28;20048;-45
2022/03/01 06:47:58;;;;;;;13.32;4.72;;;;;;;;;;5008451;28;20045;-44
2022/03/01 06:50:26;;;;;;;12.57;5.10;;;;;;;;;;5007433;28;20037;-43
2022/03/01 06:52:52;;;;;;;18.25;5.43;;;;;;;;;;5007615;28;20029;-42
2022/03/01 06:55:21;;;;;;;12.48;4.97;;;;;;;;;;5006796;28;20025;-43
2022/03/01 06:57:48;;;;;;;14.45;5.15;;;;;;;;;;5007403;28;20030;-47
2022/03/01 07:00:15;;;;;;;12.35;4.90;;;;;;;;;;5006863;28;20034;-50
2022/03/01 07:02:41;;;;;;;11.10;4.82;;;;;;;;;;5006914;28;20120;-46
2022/03/01 07:05:09;;;;;;;10.70;4.68;;;;;;;;;;5007334;28;20705;-42
2022/03/01 07:07:35;;;;;;;10.18;5.05;;;;;;;;;;5007238;28;20454;-42
2022/03/01 07:10:02;;;;;;;11.23;4.68;;;;;;;;;;5008008;28;20061;-42
2022/03/01 07:12:28;;;;;;;14.95;4.82;;;;;;;;;;5004478;28;20137;-42
2022/03/01 07:14:54;;;;;;;10.52;4.82;;;;;;;;;;5007451;28;20053;-47
2022/03/01 07:17:21;;;;;;;20.50;6.43;;;;;;;;;;5006878;28;20072;-51
2022/03/01 07:19:48;;;;;;;17.13;5.82;;;;;;;;;;5007197;28;20105;-43
2022/03/01 07:22:15;;;;;;;10.95;5.88;;;;;;;;;;5007584;28;20301;-45
2022/03/01 07:24:41;;;;;;;12.48;5.45;;;;;;;;;;5007064;28;20087;-41
2022/03/01 07:27:07;;;;;;;13.50;5.55;;;;;;;;;;5006571;28;20034;-44
2022/03/01 07:29:33;;;;;;;10.98;6.07;;;;;;;;;;5007650;28;20782;-43
2022/03/01 07:32:00;;;;;;;10.75;5.10;;;;;;;;;;5008111;28;20041;-44
2022/03/01 07:34:26;;;;;;;16.65;6.22;;;;;;;;;;5010237;28;20033;-45
2022/03/01 07:36:52;;;;;;;15.80;5.47;;;;;;;;;;5011915;28;20026;-43
2022/03/01 07:39:19;;;;;;;13.82;6.00;;;;;;;;;;5011346;28;20029;-46
2022/03/01 07:41:45;;;;;;;17.55;6.05;;;;;;;;;;5011136;28;20018;-42
2022/03/01 07:44:11;;;;;;;19.05;7.22;;;;;;;;;;5011358;28;20124;-44
2022/03/01 07:46:37;;;;;;;17.13;5.65;;;;;;;;;;5004056;28;20488;-45
2022/03/01 07:49:03;;;;;;;11.95;5.57;;;;;;;;;;5010713;28;20026;-47
2022/03/01 07:51:29;;;;;;;16.35;5.88;;;;;;;;;;5009832;28;20053;-42
2022/03/01 07:53:55;;;;;;;16.45;5.95;;;;;;;;;;5011542;28;20053;-45
2022/03/01 07:56:21;;;;;;;16.90;5.15;;;;;;;;;;5011145;28;20461;-42
2022/03/01 07:58:48;;;;;;;17.17;6.03;;;;;;;;;;5011049;28;20030;-50
2022/03/01 08:01:14;;;;;;;22.90;5.57;;;;;;;;;;5010525;28;20120;-47
2022/03/01 08:03:40;;;;;;;16.95;5.38;;;;;;;;;;5010223;28;20110;-49
2022/03/01 08:06:06;;;;;;;21.73;6.80;;;;;;;;;;5009281;28;20129;-43
2022/03/01 08:08:32;;;;;;;17.10;10.57;;;;;;;;;;5010198;28;20057;-43
2022/03/01 08:10:58;;;;;;;24.10;9.57;;;;;;;;;;5012273;28;20514;-43
2022/03/01 08:13:25;;;;;;;18.05;8.88;;;;;;;;;;5012762;28;20033;-46
2022/03/01 08:15:51;;;;;;;14.48;8.43;;;;;;;;;;5010864;28;20053;-45
2022/03/01 08:18:17;;;;;;;19.83;8.75;;;;;;;;;;5010572;28;20160;-44
2022/03/01 08:20:44;;;;;;;24.23;8.50;;;;;;;;;;5010623;28;20113;-44
2022/03/01 08:23:10;;;;;;;20.40;11.98;;;;;;;;;;5011213;28;20118;-49
2022/03/01 08:25:36;;;;;;;21.48;9.73;;;;;;;;;;5010103;28;20080;-45
2022/03/01 08:28:02;;;;;;;19.45;9.80;;;;;;;;;;5010768;28;20473;-44
2022/03/01 08:30:29;;;;;;;15.82;8.85;;;;;;;;;;5010574;28;20105;-49
2022/03/01 08:32:55;;;;;;;16.73;8.70;;;;;;;;;;5010843;28;20468;-45
2022/03/01 08:35:21;;;;;;;18.25;9.57;;;;;;;;;;5010810;28;20733;-46
2022/03/01 08:37:48;;;;;;;17.60;8.88;;;;;;;;;;5009479;28;20105;-44
2022/03/01 08:40:14;;;;;;;20.63;9.45;;;;;;;;;;5010895;28;20033;-46
2022/03/01 08:42:41;;;;;;;16.45;8.13;;;;;;;;;;5010132;28;20033;-48
2022/03/01 08:45:07;;;;;;;17.73;8.57;;;;;;;;;;5009619;28;20034;-47
2022/03/01 08:47:33;;;;;;;13.02;7.75;;;;;;;;;;5010234;28;20381;-51
2022/03/01 08:50:00;;;;;;;16.85;7.57;;;;;;;;;;5009712;28;20113;-50
2022/03/01 08:52:26;;;;;;;19.15;8.13;;;;;;;;;;5009386;28;20069;-44
2022/03/01 08:54:52;;;;;;;13.90;7.75;;;;;;;;;;5009720;28;20026;-50
2022/03/01 08:57:18;;;;;;;16.75;8.82;;;;;;;;;;5011030;28;20029;-47
2022/03/01 08:59:44;;;;;;;12.15;8.50;;;;;;;;;;5010896;28;20119;-47
2022/03/01 09:02:10;;;;;;;14.23;7.03;;;;;;;;;;5011887;28;20025;-46
2022/03/01 09:04:36;;;;;;;13.55;7.72;;;;;;;;;;5009861;28;20046;-46
2022/03/01 09:07:05;;;;;;;13.55;8.30;;;;;;;;;;5008914;28;20041;-46
2022/03/01 09:09:32;;;;;;;15.40;7.97;;;;;;;;;;5008262;28;20034;-44
2022/03/01 09:11:58;;;;;;;13.65;7.40;;;;;;;;;;5007624;28;20490;-45
2022/03/01 09:14:24;;;;;;;12.25;7.57;;;;;;;;;;5008535;28;20817;-47
2022/03/01 09:16:50;;;;;;;11.75;6.45;;;;;;;;;;5001347;28;20105;-46
2022/03/01 09:19:16;;;;;;;13.52;7.43;;;;;;;;;;4997086;28;20037;-46
2022/03/01 09:21:43;;;;;;;10.95;7.38;;;;;;;;;;5001914;28;20030;-46
2022/03/01 09:24:09;;;;;;;14.75;6.65;;;;;;;;;;5002273;28;20021;-46
2022/03/01 09:26:35;;;;;;;12.63;7.15;;;;;;;;;;4997335;28;20079;-46
2022/03/01 09:29:01;;;;;;;11.73;6.43;;;;;;;;;;5001447;28;20108;-50
2022/03/01 09:31:28;;;;;;;10.80;6.22;;;;;;;;;;5000997;28;20565;-46
2022/03/01 09:33:54;;;;;;;10.88;6.93;;;;;;;;;;5000578;28;20044;-43
2022/03/01 09:36:20;;;;;;;12.20;7.25;;;;;;;;;;4999978;28;20389;-47
2022/03/01 09:38:46;;;;;;;13.68;6.53;;;;;;;;;;5001112;28;20030;-44
2022/03/01 09:41:13;;;;;;;12.07;6.95;;;;;;;;;;4999828;28;20402;-42
2022/03/01 09:43:39;;;;;;;12.32;6.28;;;;;;;;;;4999481;28;20829;-42
2022/03/01 09:46:06;;;;;;;9.88;6.70;;;;;;;;;;5001418;28;20043;-48
2022/03/01 09:48:33;;;;;;;11.65;6.75;;;;;;;;;;4999751;28;20133;-45
2022/03/01 09:51:03;;;;;;;10.45;6.47;;;;;;;;;;5000332;28;20030;-48
2022/03/01 09:53:29;;;;;;;;;;;;;;;;;;5000424;28;20110;-47
2022/03/01 09:55:59;;;;;;;11.18;7.00;;;;;;;;;;4999911;28;19909;-48
2022/03/01 09:58:25;;;;;;;11.68;6.60;;;;;;;;;;4995871;28;20033;-47
2022/03/01 10:00:52;;;;;;;14.00;6.20;;;;;;;;;;4996159;28;20073;-44
2022/03/01 10:03:19;;;;;;;9.30;6.60;;;;;;;;;;4996429;28;20044;-48
2022/03/01 10:05:46;;;;;;;14.00;6.15;;;;;;;;;;4995967;28;20037;-44
2022/03/01 10:08:14;;;;;;;9.30;6.07;;;;;;;;;;4996547;28;20065;-46
2022/03/01 10:10:42;;;;;;;12.85;6.78;;;;;;;;;;4997086;28;20046;-46
2022/03/01 10:13:08;;;;;;;22.33;7.40;;;;;;;;;;4995611;28;20465;-42
2022/03/01 10:15:34;;;;;;;19.75;7.28;;;;;;;;;;4999149;28;20026;-43
2022/03/01 10:18:09;;;;;;;13.77;6.38;;;;;;;;;;4993746;28;20026;-48
2022/03/01 10:20:35;;;;;;;17.55;6.97;;;;;;;;;;4997547;28;20065;-44
2022/03/01 10:23:01;;;;;;;20.52;7.13;;;;;;;;;;5000501;28;20075;-42
2022/03/01 10:25:27;;;;;;;13.40;7.88;;;;;;;;;;4994639;28;20041;-45
2022/03/01 10:27:54;;;;;;;18.67;7.82;;;;;;;;;;4995194;28;20022;-44
2022/03/01 10:30:27;;;;;;;13.30;6.60;;;;;;;;;;4997344;28;20080;-43
2022/03/01 10:33:04;;;;;;;17.60;7.93;;;;;;;;;;4996513;28;20045;-43
2022/03/01 10:35:31;;;;;;;14.00;6.68;;;;;;;;;;4999218;28;20038;-46
2022/03/01 10:37:57;;;;;;;13.75;6.25;;;;;;;;;;4997276;28;20034;-43
2022/03/01 10:40:24;;;;;;;12.30;6.65;;;;;;;;;;4995963;28;20475;-47
2022/03/01 10:43:00;;;;;;;13.25;6.68;;;;;;;;;;4992267;28;20034;-45
2022/03/01 10:45:36;;;;;;;17.23;7.97;;;;;;;;;;4994789;28;20662;-44
2022/03/01 10:48:03;;;;;;;15.20;7.85;;;;;;;;;;4996486;28;20109;-45
2022/03/01 10:50:29;;;;;;;17.27;7.40;;;;;;;;;;4996546;28;20053;-47
2022/03/01 10:52:55;;;;;;;14.30;7.57;;;;;;;;;;4996569;28;20030;-45
2022/03/01 10:55:25;;;;;;;12.98;6.72;;;;;;;;;;4993671;28;21473;-45
2022/03/01 10:57:51;;;;;;;;;;;;;;;;;;4999125;28;20050;-44
2022/03/01 11:00:17;;;;;;;13.48;6.97;;;;;;;;;;5000397;28;19959;-47
2022/03/01 11:02:43;;;;;;;15.10;6.90;;;;;;;;;;5007877;28;20365;-44
2022/03/01 11:05:09;;;;;;;12.18;7.53;;;;;;;;;;5007040;28;20049;-46
2022/03/01 11:07:36;;;;;;;15.07;7.90;;;;;;;;;;5007374;28;20029;-42
2022/03/01 11:10:05;;;;;;;13.43;6.75;;;;;;;;;;5007968;28;20531;-42
2022/03/01 11:12:31;;;;;;;9.82;7.00;;;;;;;;;;5007655;28;20034;-41
2022/03/01 11:15:05;;;;;;;16.05;7.50;;;;;;;;;;5007540;28;20053;-42
2022/03/01 11:17:36;;;;;;;11.48;7.03;;;;;;;;;;5007979;28;20034;-43
2022/03/01 11:20:09;;;;;;;13.40;7.70;;;;;;;;;;5006952;28;20096;-42
2022/03/01 11:22:44;;;;;;;14.48;7.53;;;;;;;;;;5007864;28;20041;-43
2022/03/01 11:25:17;;;;;;;12.32;6.95;;;;;;;;;;5007852;28;20049;-43
2022/03/01 11:27:51;;;;;;;14.10;7.60;;;;;;;;;;5007959;28;20635;-42
2022/03/01 11:30:18;;;;;;;11.25;7.25;;;;;;;;;;5007584;28;20141;-46
2022/03/01 11:32:45;;;;;;;16.00;7.18;;;;;;;;;;5008368;28;20030;-42
2022/03/01 11:35:17;;;;;;;12.98;6.80;;;;;;;;;;5008118;28;20556;-44
2022/03/01 11:37:44;;;;;;;12.93;7.57;;;;;;;;;;5007556;28;20030;-50
2022/03/01 19:05:45;;;;;;;155.13;92.57;;;;;;;;;;5064938;28;20410;-61
2022/03/01 19:08:12;;;;;;;149.27;93.20;;;;;;;;;;5063839;28;20045;-56
2022/03/01 19:10:39;;;;;;;148.02;92.35;;;;;;;;;;5064222;28;20062;-53
2022/03/01 19:13:05;;;;;;;157.10;92.60;;;;;;;;;;5064477;28;20438;-51
2022/03/01 19:15:32;;;;;;;137.75;88.72;;;;;;;;;;5064229;28;20577;-53
2022/03/01 19:17:59;;;;;;;147.95;89.80;;;;;;;;;;5064884;28;20029;-51
2022/03/01 19:20:25;;;;;;;136.60;86.22;;;;;;;;;;5064546;28;20079;-53
2022/03/01 19:22:51;;;;;;;135.25;87.05;;;;;;;;;;5064309;28;20904;-52
2022/03/01 19:25:17;;;;;;;129.63;85.22;;;;;;;;;;5064143;28;20040;-51
2022/03/01 19:27:43;;;;;;;132.57;82.50;;;;;;;;;;5054412;28;20087;-48
2022/03/01 19:30:11;;;;;;;131.75;83.18;;;;;;;;;;5054356;28;20037;-54
2022/03/01 19:32:37;;;;;;;126.93;83.03;;;;;;;;;;5063064;28;20033;-52
2022/03/01 19:35:04;;;;;;;124.45;81.65;;;;;;;;;;5064161;28;20037;-53
2022/03/01 19:37:31;;;;;;;130.40;82.43;;;;;;;;;;5064303;28;20047;-54
2022/03/01 19:39:57;;;;;;;122.65;77.57;;;;;;;;;;5064588;28;20037;-54
2022/03/01 19:42:23;;;;;;;127.28;78.00;;;;;;;;;;5058908;28;20014;-50
2022/03/01 19:44:49;;;;;;;122.00;77.50;;;;;;;;;;5047216;28;20044;-49
2022/03/01 19:47:15;;;;;;;109.65;72.53;;;;;;;;;;5063669;28;20032;-54
2022/03/01 19:49:41;;;;;;;108.95;71.72;;;;;;;;;;5063000;28;20017;-56
2022/03/01 19:52:07;;;;;;;115.95;75.50;;;;;;;;;;5063799;28;20070;-53
2022/03/01 19:54:34;;;;;;;112.32;73.25;;;;;;;;;;5064070;28;20218;-53
2022/03/01 19:57:01;;;;;;;117.38;73.35;;;;;;;;;;5063697;28;20389;-50
2022/03/01 19:59:27;;;;;;;114.47;70.80;;;;;;;;;;5064142;28;20163;-54
2022/03/01 20:01:54;;;;;;;131.82;78.43;;;;;;;;;;5063345;28;20116;-59
2022/03/01 20:04:20;;;;;;;124.20;75.10;;;;;;;;;;5050405;28;20148;-57
2022/03/01 20:06:46;;;;;;;147.40;88.38;;;;;;;;;;5056927;28;20035;-57
2022/03/01 20:09:13;;;;;;;138.95;85.57;;;;;;;;;;5064006;28;20386;-58
2022/03/01 20:11:39;;;;;;;134.55;82.25;;;;;;;;;;5060656;28;20055;-57
2022/03/01 20:14:05;;;;;;;131.77;83.43;;;;;;;;;;5059633;28;20059;-61
2022/03/01 20:16:31;;;;;;;129.57;81.68;;;;;;;;;;5053165;28;20056;-61
2022/03/01 20:18:57;;;;;;;135.02;79.03;;;;;;;;;;5050414;28;20701;-60
2022/03/01 20:21:24;;;;;;;138.73;77.38;;;;;;;;;;5049856;28;20493;-60
2022/03/01 20:23:50;;;;;;;130.02;78.47;;;;;;;;;;5049925;28;20131;-60
2022/03/01 20:26:17;;;;;;;128.55;76.15;;;;;;;;;;5048522;28;20109;-63
2022/03/01 20:28:44;;;;;;;118.82;75.82;;;;;;;;;;5049572;28;20094;-61
2022/03/01 20:31:10;;;;;;;118.32;72.30;;;;;;;;;;5049952;28;20025;-60
2022/03/01 20:33:36;;;;;;;113.00;71.88;;;;;;;;;;5049744;28;20703;-62
2022/03/01 20:36:03;;;;;;;114.68;72.15;;;;;;;;;;5049827;28;20029;-60
2022/03/01 20:38:30;;;;;;;114.72;70.80;;;;;;;;;;5048202;28;20394;-60
2022/03/01 20:40:56;;;;;;;113.93;71.63;;;;;;;;;;5049699;28;20112;-61
2022/03/01 20:43:22;;;;;;;115.28;70.43;;;;;;;;;;5043477;28;20068;-61
2022/03/01 20:45:48;;;;;;;116.15;70.32;;;;;;;;;;5049504;28;20049;-61
2022/03/01 20:48:14;;;;;;;114.05;69.30;;;;;;;;;;5049433;28;20075;-60
2022/03/01 20:50:41;;;;;;;115.82;69.13;;;;;;;;;;5041335;28;20037;-62
2022/03/01 20:53:09;;;;;;;105.90;67.95;;;;;;;;;;5041354;28;20021;-60
2022/03/01 20:55:35;;;;;;;109.97;69.75;;;;;;;;;;5048006;28;20088;-61
2022/03/01 20:58:01;;;;;;;107.60;65.57;;;;;;;;;;5049466;28;20075;-61
2022/03/01 21:00:27;;;;;;;103.07;63.80;;;;;;;;;;5048688;28;20037;-61
2022/03/01 21:02:54;;;;;;;99.93;64.13;;;;;;;;;;5047157;28;20029;-61
2022/03/01 21:05:21;;;;;;;101.63;64.35;;;;;;;;;;5049458;28;20052;-59
2022/03/01 21:07:54;;;;;;;109.05;64.07;;;;;;;;;;5049509;28;20107;-60
2022/03/01 21:10:21;;;;;;;102.28;59.60;;;;;;;;;;5038013;28;20036;-59
2022/03/01 21:12:50;;;;;;;99.22;62.17;;;;;;;;;;5049245;28;20029;-60
2022/03/01 21:15:17;;;;;;;96.90;60.70;;;;;;;;;;5047342;28;20047;-60
2022/03/01 21:17:43;;;;;;;99.40;61.90;;;;;;;;;;5045710;28;20441;-53
2022/03/01 21:20:10;;;;;;;97.85;61.15;;;;;;;;;;5046244;28;20039;-55
2022/03/01 21:22:36;;;;;;;99.60;61.67;;;;;;;;;;5029762;28;20030;-59
2022/03/01 21:25:03;;;;;;;93.15;59.50;;;;;;;;;;5047649;28;20029;-59
2022/03/01 21:27:30;;;;;;;92.88;57.92;;;;;;;;;;5047797;28;20029;-59
2022/03/01 21:29:56;;;;;;;88.43;56.83;;;;;;;;;;5049107;28;20032;-59
2022/03/01 21:32:22;;;;;;;88.60;56.00;;;;;;;;;;5029194;28;20037;-59
2022/03/01 21:34:48;;;;;;;89.78;55.10;;;;;;;;;;5042031;28;20116;-59
2022/03/01 21:37:14;;;;;;;87.63;53.75;;;;;;;;;;5046187;28;20025;-61
2022/03/01 21:39:40;;;;;;;87.70;54.22;;;;;;;;;;5042747;28;20071;-60
2022/03/01 21:42:06;;;;;;;89.50;53.38;;;;;;;;;;5040610;28;20120;-59
2022/03/01 21:44:32;;;;;;;94.75;52.40;;;;;;;;;;5040514;28;20041;-60
2022/03/01 21:46:58;;;;;;;77.90;49.78;;;;;;;;;;5040958;28;20017;-61
2022/03/01 21:49:24;;;;;;;86.25;52.30;;;;;;;;;;5040093;28;20132;-60